createdAt,value
2023-12-12T00:00:54.783Z,7.83
2023-12-12T00:03:24.952Z,7.85
2023-12-12T00:05:55.117Z,7.85
2023-12-12T00:08:24.643Z,7.84
2023-12-12T00:10:54.844Z,7.87
2023-12-12T00:13:24.224Z,7.91
2023-12-12T00:15:53.572Z,7.95
2023-12-12T00:18:23.770Z,8.01
2023-12-12T00:20:53.955Z,8.05
2023-12-12T00:23:23.365Z,8.06
2023-12-12T00:25:52.717Z,8.12
2023-12-12T00:28:22.072Z,8.12
2023-12-12T00:30:52.763Z,8.11
2023-12-12T00:33:23.319Z,8.12
2023-12-12T00:35:52.898Z,8.12
2023-12-12T00:38:22.349Z,8.15
2023-12-12T00:40:59.700Z,8.12
2023-12-12T00:43:29.523Z,8.12
2023-12-12T00:45:59.664Z,8.12
2023-12-12T00:48:29.339Z,8.14
2023-12-12T00:50:59.422Z,8.14
2023-12-12T00:53:29.795Z,8.09
2023-12-12T00:55:59.337Z,8.14
2023-12-12T00:58:29.876Z,8.20
2023-12-12T01:00:59.492Z,8.16
2023-12-12T01:03:30.050Z,8.21
2023-12-12T01:05:59.927Z,8.21
2023-12-12T01:08:29.454Z,8.20
2023-12-12T01:10:58.976Z,8.15
2023-12-12T01:13:28.546Z,8.11
2023-12-12T01:15:58.085Z,8.12
2023-12-12T01:18:29.558Z,8.14
2023-12-12T01:20:59.334Z,8.11
2023-12-12T01:23:28.909Z,8.08
2023-12-12T01:25:59.566Z,8.08
2023-12-12T01:28:29.498Z,8.05
2023-12-12T01:31:02.783Z,8.06
2023-12-12T01:33:32.884Z,8.11
2023-12-12T01:36:02.505Z,8.11
2023-12-12T01:38:34.382Z,8.09
2023-12-12T01:41:04.820Z,8.09
2023-12-12T01:43:36.180Z,8.08
2023-12-12T01:46:14.773Z,8.14
2023-12-12T01:48:44.925Z,8.16
2023-12-12T01:51:15.491Z,8.12
2023-12-12T01:53:53.473Z,8.06
2023-12-12T01:56:23.769Z,8.11
2023-12-12T01:58:58.669Z,8.12
2023-12-12T02:01:30.888Z,8.14
2023-12-12T02:04:03.474Z,8.14
2023-12-12T02:06:33.233Z,8.11
2023-12-12T02:09:03.168Z,8.08
2023-12-12T02:11:32.992Z,8.01
2023-12-12T02:14:02.611Z,7.91
2023-12-12T02:16:32.325Z,7.94
2023-12-12T02:19:02.269Z,7.90
2023-12-12T02:21:31.874Z,7.84
2023-12-12T02:24:01.609Z,7.81
2023-12-12T02:26:31.708Z,7.80
2023-12-12T02:29:01.566Z,7.78
2023-12-12T02:31:31.267Z,7.78
2023-12-12T02:34:01.446Z,7.80
2023-12-12T02:36:31.144Z,7.84
2023-12-12T02:39:00.639Z,7.85
2023-12-12T02:41:30.340Z,7.80
2023-12-12T02:43:59.979Z,7.77
2023-12-12T02:46:29.513Z,7.74
2023-12-12T02:48:59.784Z,7.71
2023-12-12T02:51:29.555Z,7.71
2023-12-12T02:53:59.158Z,7.67
2023-12-12T02:56:35.147Z,7.60
2023-12-12T02:59:05.314Z,7.57
2023-12-12T03:01:34.981Z,7.49
2023-12-12T03:04:04.796Z,7.42
2023-12-12T03:06:34.312Z,7.38
2023-12-12T03:09:03.870Z,7.33
2023-12-12T03:11:36.879Z,7.28
2023-12-12T03:14:06.442Z,7.25
2023-12-12T03:16:36.080Z,7.09
2023-12-12T03:19:05.937Z,6.90
2023-12-12T03:21:35.466Z,6.64
2023-12-12T03:24:05.299Z,6.50
2023-12-12T03:26:36.679Z,6.39
2023-12-12T03:29:06.177Z,6.40
2023-12-12T03:31:36.132Z,6.43
2023-12-12T03:34:06.139Z,6.44
2023-12-12T03:36:36.329Z,6.46
2023-12-12T03:39:05.965Z,6.57
2023-12-12T03:41:35.581Z,6.69
2023-12-12T03:44:06.418Z,6.74
2023-12-12T03:46:36.003Z,6.76
2023-12-12T03:49:06.993Z,6.76
2023-12-12T03:51:36.835Z,6.71
2023-12-12T03:54:06.363Z,6.64
2023-12-12T03:56:37.489Z,6.62
2023-12-12T03:59:07.868Z,6.52
2023-12-12T04:01:37.540Z,6.44
2023-12-12T04:04:07.247Z,6.32
2023-12-12T04:06:47.885Z,6.29
2023-12-12T04:09:18.452Z,6.22
2023-12-12T04:11:48.036Z,6.21
2023-12-12T04:14:17.785Z,6.32
2023-12-12T04:16:48.956Z,6.47
2023-12-12T04:19:18.828Z,6.53
2023-12-12T04:21:48.625Z,6.58
2023-12-12T04:24:18.356Z,6.62
2023-12-12T04:26:47.883Z,6.64
2023-12-12T04:29:17.489Z,6.63
2023-12-12T04:31:51.658Z,6.49
2023-12-12T04:34:22.435Z,6.43
2023-12-12T04:36:52.029Z,6.44
2023-12-12T04:39:22.736Z,6.42
2023-12-12T04:41:53.339Z,6.32
2023-12-12T04:44:24.101Z,6.16
2023-12-12T04:46:53.763Z,5.99
2023-12-12T04:49:24.308Z,5.88
2023-12-12T04:51:53.956Z,5.78
2023-12-12T04:54:23.810Z,5.78
2023-12-12T04:56:53.301Z,5.81
2023-12-12T04:59:22.880Z,5.83
2023-12-12T05:01:52.632Z,5.91
2023-12-12T05:04:22.546Z,5.97
2023-12-12T05:06:52.207Z,6.05
2023-12-12T05:09:22.002Z,6.09
2023-12-12T05:11:52.098Z,6.19
2023-12-12T05:14:22.575Z,6.25
2023-12-12T05:17:00.939Z,6.28
2023-12-12T05:19:36.955Z,6.25
2023-12-12T05:22:06.942Z,6.25
2023-12-12T05:24:36.777Z,6.32
2023-12-12T05:27:07.375Z,6.26
2023-12-12T05:29:38.113Z,6.18
2023-12-12T05:32:10.524Z,6.08
2023-12-12T05:34:40.057Z,5.94
2023-12-12T05:37:11.926Z,5.83
2023-12-12T05:39:41.557Z,5.74
2023-12-12T05:42:11.501Z,5.64
2023-12-12T05:44:41.350Z,5.61
2023-12-12T05:47:12.425Z,5.49
2023-12-12T05:49:43.902Z,5.33
2023-12-12T05:52:15.263Z,5.21
2023-12-12T05:54:48.589Z,5.09
2023-12-12T05:57:19.024Z,4.96
2023-12-12T05:59:51.073Z,5.01
2023-12-12T06:02:20.595Z,5.02
2023-12-12T06:04:51.751Z,5.18
2023-12-12T06:07:22.698Z,5.18
2023-12-12T06:09:52.640Z,5.16
2023-12-12T06:12:22.347Z,5.13
2023-12-12T06:14:51.904Z,5.23
2023-12-12T06:17:21.429Z,5.40
2023-12-12T06:19:52.610Z,5.49
2023-12-12T06:22:22.302Z,5.51
2023-12-12T06:24:55.649Z,5.51
2023-12-12T06:27:25.598Z,5.54
2023-12-12T06:29:55.379Z,5.61
2023-12-12T06:32:26.674Z,5.70
2023-12-12T06:34:56.637Z,5.86
2023-12-12T06:37:26.232Z,5.95
2023-12-12T06:39:55.801Z,6.06
2023-12-12T06:42:26.251Z,6.26
2023-12-12T06:44:56.119Z,6.44
2023-12-12T06:47:27.181Z,6.44
2023-12-12T06:49:58.634Z,6.43
2023-12-12T06:52:28.166Z,6.47
2023-12-12T06:54:57.811Z,6.53
2023-12-12T06:57:30.310Z,6.63
2023-12-12T07:00:00.139Z,6.73
2023-12-12T07:02:30.018Z,6.70
2023-12-12T07:04:59.992Z,6.67
2023-12-12T07:07:30.026Z,6.77
2023-12-12T07:10:00.501Z,6.81
2023-12-12T07:12:30.294Z,6.83
2023-12-12T07:15:00.829Z,6.81
2023-12-12T07:17:31.635Z,6.83
2023-12-12T07:20:01.531Z,6.88
2023-12-12T07:22:33.124Z,6.91
2023-12-12T07:25:03.571Z,6.95
2023-12-12T07:27:33.349Z,6.95
2023-12-12T07:30:03.301Z,7.00
2023-12-12T07:32:32.975Z,7.01
2023-12-12T07:35:02.602Z,7.00
2023-12-12T07:37:33.327Z,7.04
2023-12-12T07:40:05.199Z,7.01
2023-12-12T07:42:35.121Z,6.97
2023-12-12T07:45:09.348Z,7.00
2023-12-12T07:47:42.987Z,7.01
2023-12-12T07:50:13.806Z,7.00
2023-12-12T07:52:43.471Z,7.05
2023-12-12T07:55:13.630Z,7.11
2023-12-12T07:57:44.654Z,7.16
2023-12-12T08:00:16.642Z,7.22
2023-12-12T08:02:47.114Z,7.30
2023-12-12T08:05:22.041Z,7.42
2023-12-12T08:07:53.428Z,7.45
2023-12-12T08:10:23.323Z,7.47
2023-12-12T08:12:53.024Z,7.46
2023-12-12T08:15:23.549Z,7.47
2023-12-12T08:17:53.172Z,7.49
2023-12-12T08:20:22.713Z,7.57
2023-12-12T08:22:52.597Z,7.65
2023-12-12T08:25:25.370Z,7.70
2023-12-12T08:27:55.042Z,7.76
2023-12-12T08:30:24.909Z,7.83
2023-12-12T08:32:55.888Z,7.94
2023-12-12T08:35:25.539Z,8.01
2023-12-12T08:37:56.081Z,8.09
2023-12-12T08:40:26.124Z,8.12
2023-12-12T08:42:55.862Z,8.21
2023-12-12T08:45:26.318Z,8.28
2023-12-12T08:47:55.927Z,8.36
2023-12-12T08:50:25.843Z,8.48
2023-12-12T08:52:55.451Z,8.60
2023-12-12T08:55:25.091Z,8.71
2023-12-12T08:57:55.254Z,8.83
2023-12-12T09:00:26.218Z,8.91
2023-12-12T09:02:56.465Z,9.08
2023-12-12T09:05:26.256Z,9.24
2023-12-12T09:07:56.681Z,9.43
2023-12-12T09:10:27.523Z,9.47
2023-12-12T09:12:57.144Z,9.60
2023-12-12T09:15:27.228Z,9.66
2023-12-12T09:18:11.067Z,9.70
2023-12-12T09:20:47.453Z,9.77
2023-12-12T09:23:19.660Z,9.77
2023-12-12T09:25:50.465Z,9.74
2023-12-12T09:28:20.077Z,9.79
2023-12-12T09:30:49.491Z,9.91
2023-12-12T09:33:19.814Z,10.00
2023-12-12T09:35:50.657Z,10.05
2023-12-12T09:38:20.255Z,10.15
2023-12-12T09:40:49.866Z,10.22
2023-12-12T09:43:23.926Z,10.38
2023-12-12T09:45:59.740Z,10.48
2023-12-12T09:48:29.631Z,10.70
2023-12-12T09:51:01.716Z,10.83
2023-12-12T09:53:43.900Z,10.84
2023-12-12T09:56:19.509Z,10.80
2023-12-12T09:58:53.082Z,10.79
2023-12-12T10:01:25.425Z,10.76
2023-12-12T10:03:58.479Z,10.79
2023-12-12T10:06:40.658Z,10.79
2023-12-12T10:09:14.271Z,10.77
2023-12-12T10:11:43.774Z,10.76
2023-12-12T10:14:14.420Z,10.83
2023-12-12T10:16:45.028Z,10.77
2023-12-12T10:19:16.499Z,10.86
2023-12-12T10:21:49.830Z,10.99
2023-12-12T10:24:29.222Z,11.01
2023-12-12T10:27:00.750Z,11.06
2023-12-12T10:29:33.416Z,11.08
2023-12-12T10:32:06.374Z,11.11
2023-12-12T10:34:36.367Z,11.15
2023-12-12T10:37:06.625Z,11.17
2023-12-12T10:39:36.200Z,11.18
2023-12-12T10:42:08.475Z,11.21
2023-12-12T10:44:48.684Z,11.30
2023-12-12T10:47:23.162Z,11.36
2023-12-12T10:49:58.845Z,11.45
2023-12-12T10:52:32.829Z,11.63
2023-12-12T10:55:04.849Z,11.68
2023-12-12T10:57:36.331Z,11.75
2023-12-12T11:00:20.116Z,11.86
2023-12-12T11:02:51.304Z,11.97
2023-12-12T11:05:23.081Z,12.00
2023-12-12T11:07:57.863Z,12.00
2023-12-12T11:10:28.613Z,12.00
2023-12-12T11:13:06.741Z,12.00
2023-12-12T11:15:40.021Z,11.93
2023-12-12T11:18:12.907Z,11.97
2023-12-12T11:20:45.806Z,11.96
2023-12-12T11:23:57.061Z,12.00
2023-12-12T11:26:32.978Z,12.09
2023-12-12T11:29:03.673Z,12.20
2023-12-12T11:31:39.459Z,12.42
2023-12-12T11:34:15.202Z,12.58
2023-12-12T11:37:01.991Z,12.81
2023-12-12T11:39:53.774Z,12.85
2023-12-12T11:42:33.093Z,12.86
2023-12-12T11:45:05.825Z,12.83
2023-12-12T11:47:37.013Z,12.78
2023-12-12T11:50:45.704Z,12.82
2023-12-12T11:53:44.399Z,12.95
2023-12-12T11:56:23.994Z,13.00
2023-12-12T11:58:58.391Z,13.06
2023-12-12T12:01:30.385Z,13.12
2023-12-12T12:04:00.612Z,12.97
2023-12-12T12:06:30.287Z,12.76
2023-12-12T12:08:59.894Z,12.65
2023-12-12T12:11:45.762Z,12.61
2023-12-12T12:14:25.338Z,12.47
2023-12-12T12:17:04.272Z,12.58
2023-12-12T12:19:42.707Z,12.68
2023-12-12T12:22:16.273Z,12.64
2023-12-12T12:24:50.425Z,12.58
2023-12-12T12:27:20.010Z,12.47
2023-12-12T12:30:12.250Z,12.37
2023-12-12T12:32:42.139Z,12.24
2023-12-12T12:35:15.362Z,12.30
2023-12-12T12:37:45.999Z,12.35
2023-12-12T12:40:40.622Z,12.42
2023-12-12T12:43:25.751Z,12.31
2023-12-12T12:45:56.104Z,12.13
2023-12-12T12:48:31.254Z,11.94
2023-12-12T12:51:01.749Z,11.85
2023-12-12T12:53:31.815Z,11.80
2023-12-12T12:56:03.415Z,11.76
2023-12-12T12:58:40.332Z,11.65
2023-12-12T13:01:12.884Z,11.57
2023-12-12T13:03:44.744Z,11.48
2023-12-12T13:06:16.301Z,11.35
2023-12-12T13:08:50.480Z,11.27
2023-12-12T13:11:23.871Z,11.25
2023-12-12T13:13:54.966Z,11.23
2023-12-12T13:16:25.342Z,11.28
2023-12-12T13:18:55.238Z,11.34
2023-12-12T13:21:25.707Z,11.39
2023-12-12T13:23:56.879Z,11.38
2023-12-12T13:26:27.214Z,11.42
2023-12-12T13:28:58.548Z,11.42
2023-12-12T13:31:29.521Z,11.44
2023-12-12T13:34:04.991Z,11.42
2023-12-12T13:36:37.309Z,11.31
2023-12-12T13:39:17.353Z,11.24
2023-12-12T13:41:50.280Z,11.23
2023-12-12T13:44:21.506Z,11.21
2023-12-12T13:46:56.906Z,11.18
2023-12-12T13:49:40.376Z,11.11
2023-12-12T13:52:25.629Z,11.10
2023-12-12T13:55:13.865Z,11.00
2023-12-12T13:57:57.499Z,10.92
2023-12-12T14:00:39.414Z,10.90
2023-12-12T14:03:13.042Z,10.83
2023-12-12T14:05:44.247Z,10.76
2023-12-12T14:08:15.407Z,10.70
2023-12-12T14:10:45.229Z,10.65
2023-12-12T14:13:15.066Z,10.69
2023-12-12T14:15:44.664Z,10.72
2023-12-12T14:18:18.150Z,10.63
2023-12-12T14:20:50.479Z,10.56
2023-12-12T14:23:20.670Z,10.46
2023-12-12T14:25:50.105Z,10.49
2023-12-12T14:28:19.908Z,10.48
2023-12-12T14:30:50.072Z,10.45
2023-12-12T14:33:21.907Z,10.49
2023-12-12T14:35:51.790Z,10.42
2023-12-12T14:38:21.483Z,10.32
2023-12-12T14:40:51.721Z,10.28
2023-12-12T14:43:22.397Z,10.31
2023-12-12T14:45:52.161Z,10.24
2023-12-12T14:48:22.021Z,10.25
2023-12-12T14:50:53.476Z,10.21
2023-12-12T14:53:23.053Z,10.11
2023-12-12T14:55:52.687Z,10.10
2023-12-12T14:58:22.617Z,10.05
2023-12-12T15:00:53.824Z,10.01
2023-12-12T15:03:24.772Z,9.95
2023-12-12T15:05:54.554Z,9.93
2023-12-12T15:08:24.163Z,9.83
2023-12-12T15:10:55.370Z,9.80
2023-12-12T15:13:25.404Z,9.84
2023-12-12T15:15:55.156Z,9.90
2023-12-12T15:18:25.122Z,9.94
2023-12-12T15:20:54.886Z,9.94
2023-12-12T15:23:25.216Z,9.91
2023-12-12T15:25:55.445Z,9.89
2023-12-12T15:28:30.279Z,9.86
2023-12-12T15:31:01.294Z,9.83
2023-12-12T15:33:34.303Z,9.79
2023-12-12T15:36:10.980Z,9.74
2023-12-12T15:38:41.560Z,9.76
2023-12-12T15:41:11.282Z,9.72
2023-12-12T15:43:43.234Z,9.66
2023-12-12T15:46:21.732Z,9.72
2023-12-12T15:48:52.098Z,9.73
2023-12-12T15:51:22.344Z,9.80
2023-12-12T15:53:54.279Z,9.74
2023-12-12T15:56:24.132Z,9.82
2023-12-12T15:58:56.825Z,9.82
2023-12-12T16:01:27.015Z,9.76
2023-12-12T16:04:04.110Z,9.72
2023-12-12T16:06:35.901Z,9.77
2023-12-12T16:09:11.381Z,9.82
2023-12-12T16:11:40.974Z,9.77
2023-12-12T16:14:10.875Z,9.86
2023-12-12T16:16:40.805Z,9.72
2023-12-12T16:19:11.766Z,9.74
2023-12-12T16:21:41.886Z,9.77
2023-12-12T16:24:13.588Z,9.74
2023-12-12T16:26:43.772Z,9.79
2023-12-12T16:29:14.045Z,9.82
2023-12-12T16:31:44.142Z,9.76
2023-12-12T16:34:14.612Z,9.82
2023-12-12T16:36:49.657Z,9.80
2023-12-12T16:39:22.293Z,9.80
2023-12-12T16:41:51.899Z,9.77
2023-12-12T16:44:22.689Z,9.76
2023-12-12T16:46:53.195Z,9.79
2023-12-12T16:49:23.263Z,9.83
2023-12-12T16:51:54.277Z,9.83
2023-12-12T16:54:25.221Z,9.83
2023-12-12T16:57:00.903Z,9.82
2023-12-12T16:59:31.642Z,9.79
2023-12-12T17:02:01.270Z,9.80
2023-12-12T17:04:35.469Z,9.74
2023-12-12T17:07:07.716Z,9.73
2023-12-12T17:09:37.672Z,9.74
2023-12-12T17:12:09.127Z,9.77
2023-12-12T17:14:39.450Z,9.87
2023-12-12T17:17:09.048Z,9.89
2023-12-12T17:19:38.716Z,9.93
2023-12-12T17:22:08.535Z,9.90
2023-12-12T17:24:41.560Z,9.93
2023-12-12T17:27:11.257Z,9.91
2023-12-12T17:29:41.770Z,9.87
2023-12-12T17:32:16.538Z,9.87
2023-12-12T17:34:52.731Z,9.79
2023-12-12T17:37:23.836Z,9.79
2023-12-12T17:39:53.773Z,9.72
2023-12-12T17:42:23.887Z,9.74
2023-12-12T17:44:54.553Z,9.74
2023-12-12T17:47:25.465Z,9.72
2023-12-12T17:49:55.909Z,9.69
2023-12-12T17:52:25.529Z,9.67
2023-12-12T17:54:55.476Z,9.67
2023-12-12T17:57:25.097Z,9.86
2023-12-12T17:59:55.858Z,9.84
2023-12-12T18:02:25.406Z,9.90
2023-12-12T18:04:55.905Z,9.94
2023-12-12T18:07:25.670Z,9.95
2023-12-12T18:09:56.575Z,9.94
2023-12-12T18:12:26.153Z,9.94
2023-12-12T18:14:55.693Z,9.93
2023-12-12T18:17:26.206Z,9.97
2023-12-12T18:19:56.309Z,9.90
2023-12-12T18:22:26.011Z,9.89
2023-12-12T18:24:58.026Z,10.03
2023-12-12T18:27:28.981Z,9.90
2023-12-12T18:29:59.381Z,9.73
2023-12-12T18:32:29.031Z,9.57
2023-12-12T18:35:04.488Z,9.43
2023-12-12T18:37:39.684Z,9.29
2023-12-12T18:40:14.382Z,9.27
2023-12-12T18:42:45.325Z,9.39
2023-12-12T18:45:15.738Z,9.46
2023-12-12T18:47:45.930Z,9.56
2023-12-12T18:50:15.981Z,9.62
2023-12-12T18:52:46.701Z,9.70
2023-12-12T18:55:17.510Z,9.73
2023-12-12T18:57:47.925Z,9.73
2023-12-12T19:00:19.119Z,9.77
2023-12-12T19:02:48.915Z,9.94
2023-12-12T19:05:20.259Z,9.89
2023-12-12T19:07:56.642Z,9.84
2023-12-12T19:10:27.299Z,9.76
2023-12-12T19:12:57.241Z,9.72
2023-12-12T19:15:27.250Z,9.72
2023-12-12T19:17:56.888Z,9.62
2023-12-12T19:20:26.673Z,9.50
2023-12-12T19:22:56.318Z,9.40
2023-12-12T19:25:25.815Z,9.32
2023-12-12T19:27:56.414Z,9.22
2023-12-12T19:30:26.251Z,9.07
2023-12-12T19:32:56.106Z,8.98
2023-12-12T19:35:28.280Z,8.98
2023-12-12T19:37:58.718Z,9.00
2023-12-12T19:40:28.967Z,9.04
2023-12-12T19:43:02.947Z,9.07
2023-12-12T19:45:33.600Z,9.05
2023-12-12T19:48:04.281Z,9.05
2023-12-12T19:50:34.299Z,9.07
2023-12-12T19:53:12.202Z,9.05
2023-12-12T19:55:42.102Z,9.07
2023-12-12T19:58:12.059Z,9.10
2023-12-12T20:00:42.292Z,9.15
2023-12-12T20:03:11.848Z,9.12
2023-12-12T20:05:41.459Z,9.14
2023-12-12T20:08:11.129Z,9.10
2023-12-12T20:10:41.173Z,9.12
2023-12-12T20:13:12.486Z,9.05
2023-12-12T20:15:42.612Z,9.12
2023-12-12T20:18:13.098Z,9.17
2023-12-12T20:20:42.802Z,9.21
2023-12-12T20:23:12.511Z,9.32
2023-12-12T20:25:42.787Z,9.31
2023-12-12T20:28:12.559Z,9.24
2023-12-12T20:30:42.343Z,9.18
2023-12-12T20:33:12.920Z,9.17
2023-12-12T20:35:42.846Z,9.10
2023-12-12T20:38:12.467Z,9.04
2023-12-12T20:40:43.021Z,9.03
2023-12-12T20:43:12.652Z,9.00
2023-12-12T20:45:43.507Z,9.07
2023-12-12T20:48:14.810Z,9.17
2023-12-12T20:50:51.577Z,9.24
2023-12-12T20:53:22.998Z,9.25
2023-12-12T20:55:52.893Z,9.18
2023-12-12T20:58:22.741Z,9.24
2023-12-12T21:00:53.258Z,9.14
2023-12-12T21:03:27.906Z,9.00
2023-12-12T21:05:59.670Z,8.83
2023-12-12T21:08:29.283Z,8.69
2023-12-12T21:10:59.181Z,8.60
2023-12-12T21:13:33.711Z,8.70
2023-12-12T21:16:04.256Z,8.66
2023-12-12T21:18:34.070Z,8.67
2023-12-12T21:21:05.715Z,8.60
2023-12-12T21:23:37.977Z,8.41
2023-12-12T21:26:07.878Z,8.25
2023-12-12T21:28:38.777Z,8.05
2023-12-12T21:31:13.703Z,7.88
2023-12-12T21:33:44.018Z,7.77
2023-12-12T21:36:15.180Z,7.78
2023-12-12T21:38:46.953Z,7.76
2023-12-12T21:41:16.922Z,7.83
2023-12-12T21:43:46.663Z,7.88
2023-12-12T21:46:17.408Z,7.88
2023-12-12T21:48:47.111Z,7.93
2023-12-12T21:51:19.710Z,7.97
2023-12-12T21:53:49.549Z,8.02
2023-12-12T21:56:26.464Z,8.05
2023-12-12T21:58:58.196Z,8.06
2023-12-12T22:01:28.320Z,8.11
2023-12-12T22:03:59.251Z,8.11
2023-12-12T22:06:29.013Z,8.18
2023-12-12T22:08:59.159Z,8.29
2023-12-12T22:11:29.063Z,8.39
2023-12-12T22:13:58.684Z,8.56
2023-12-12T22:16:31.573Z,8.73
2023-12-12T22:19:04.118Z,9.03
2023-12-12T22:21:40.439Z,9.11
2023-12-12T22:24:10.862Z,9.07
2023-12-12T22:26:42.235Z,9.08
2023-12-12T22:29:13.094Z,9.08
2023-12-12T22:31:52.528Z,9.04
2023-12-12T22:34:24.084Z,9.07
2023-12-12T22:36:54.463Z,9.00
2023-12-12T22:39:30.910Z,8.96
2023-12-12T22:42:00.951Z,8.91
2023-12-12T22:44:30.926Z,8.84
2023-12-12T22:47:00.521Z,8.73
2023-12-12T22:49:30.145Z,8.69
2023-12-12T22:52:00.579Z,8.62
2023-12-12T22:54:30.818Z,8.56
2023-12-12T22:57:02.168Z,8.46
2023-12-12T22:59:34.226Z,8.33
2023-12-12T23:02:05.906Z,8.36
2023-12-12T23:04:42.200Z,8.28
2023-12-12T23:07:11.903Z,8.26
2023-12-12T23:09:42.077Z,8.24
2023-12-12T23:12:12.881Z,8.22
2023-12-12T23:14:42.389Z,8.28
2023-12-12T23:17:14.080Z,8.35
2023-12-12T23:19:43.727Z,8.42
2023-12-12T23:22:13.717Z,8.49
2023-12-12T23:24:43.498Z,8.54
2023-12-12T23:27:13.937Z,8.53
2023-12-12T23:29:43.505Z,8.54
2023-12-12T23:32:13.493Z,8.50
2023-12-12T23:34:51.990Z,8.42
2023-12-12T23:37:26.526Z,8.38
2023-12-12T23:39:56.507Z,8.32
2023-12-12T23:42:28.103Z,8.22
2023-12-12T23:45:06.605Z,8.20
2023-12-12T23:47:37.586Z,8.22
2023-12-12T23:50:10.385Z,8.22
2023-12-12T23:52:40.885Z,8.18
2023-12-12T23:55:11.846Z,8.21
2023-12-12T23:57:45.006Z,8.24
